Portada
METAR-TAF:

METAR-TAF

Aeroports :

Alexander City, Alabama, Estats Units d'Amèrica

latitud: 32-54-53N, longitud: 085-57-46W, altitud: 209 m

Observació

L'informe es va fer fa 7 minuts, a les 15:35 UTC
Vent 15 kt del Nord/Nord-Oest amb ràfegues de 25 kt
Temperatura 14°C
Humitat 47%
Pressió 1016 hPa
Visibilitat: 16.1 km
Cel clar

METAR: KALX 011535Z AUTO 33015G25KT 10SM CLR 14/03 A2999 RMK AO2 T01390031

Hora: 10:42 (15:42 UTC)


TAF: manca

Observacions i pronòstics meteorològics de més de 4000 aeroports (METAR i TAF).

Les estacions disponibles són els punts grocs i vermells al mapa.

Posi el ratolí al punt desitjat per veure el nom de l'estació.

Feu clic per veure les observacions i els pronòstics meteorològics.

Per canviar el mapa: feu clic els botons verds amb una creu de color negre per apropar; al botó verd amb un guió per allunyar la imatge; o en les fletxes verdes per a mapes adjacents.


METAR-TAF: